Time;durP1;ratioP1;P1;durP2;ratioP2;P2;SDS_P1;SDS_P2;PMS_P1;PMS_P2;Temp;Humidity;BMP_temperature;BMP_pressure;BME280_temperature;BME280_humidity;BME280_pressure;Samples;Min_cycle;Max_cycle;Signal;HPM_P1;HPM_P2
2021/10/15 00:01:46;;;;;;;0.20;0.20;;;;;;;;;;5062612;28;20221;-70
2021/10/15 00:04:13;;;;;;;0.00;0.00;;;;;;;;;;5069786;28;20223;-71
2021/10/15 00:06:42;;;;;;;0.23;0.23;;;;;;;;;;5059135;28;20200;-71
2021/10/15 00:09:10;;;;;;;0.00;0.00;;;;;;;;;;5068854;28;20209;-71
2021/10/15 00:11:37;;;;;;;0.00;0.00;;;;;;;;;;5064252;28;20640;-70
2021/10/15 00:14:05;;;;;;;0.10;0.10;;;;;;;;;;5066572;28;20583;-71
2021/10/15 00:16:32;;;;;;;0.20;0.20;;;;;;;;;;5065352;28;20206;-71
2021/10/15 00:19:00;;;;;;;0.40;0.20;;;;;;;;;;5070051;28;20226;-71
2021/10/15 00:21:27;;;;;;;0.10;0.10;;;;;;;;;;5068887;28;20231;-70
2021/10/15 00:23:56;;;;;;;0.00;0.00;;;;;;;;;;5066976;28;20225;-70
2021/10/15 00:26:23;;;;;;;0.30;0.30;;;;;;;;;;5064662;28;20216;-70
2021/10/15 00:28:51;;;;;;;0.50;0.50;;;;;;;;;;5068052;28;20287;-70
2021/10/15 00:31:18;;;;;;;3.90;1.87;;;;;;;;;;5067550;28;20291;-71
2021/10/15 00:33:46;;;;;;;0.53;0.53;;;;;;;;;;5064782;28;20217;-72
2021/10/15 00:36:13;;;;;;;0.17;0.17;;;;;;;;;;5069736;28;20269;-71
2021/10/15 00:38:41;;;;;;;0.00;0.00;;;;;;;;;;5061576;28;20203;-71
2021/10/15 00:41:09;;;;;;;0.10;0.10;;;;;;;;;;5057003;28;20294;-70
2021/10/15 00:43:37;;;;;;;0.00;0.00;;;;;;;;;;5060438;28;20230;-70
2021/10/15 00:46:04;;;;;;;0.00;0.00;;;;;;;;;;5066312;28;20205;-70
2021/10/15 00:48:31;;;;;;;0.60;0.60;;;;;;;;;;5070113;28;20206;-71
2021/10/15 00:50:59;;;;;;;0.30;0.30;;;;;;;;;;5068062;28;20203;-71
2021/10/15 00:53:26;;;;;;;0.10;0.10;;;;;;;;;;5067222;28;20278;-70
2021/10/15 00:55:54;;;;;;;0.83;0.83;;;;;;;;;;5058489;28;20207;-70
2021/10/15 00:58:22;;;;;;;0.73;0.60;;;;;;;;;;5063502;28;20571;-71
2021/10/15 01:00:50;;;;;;;0.10;0.10;;;;;;;;;;5064753;28;20203;-70
2021/10/15 01:03:17;;;;;;;0.00;0.00;;;;;;;;;;5064327;28;20223;-71
2021/10/15 01:05:45;;;;;;;0.20;0.20;;;;;;;;;;5069864;28;20219;-71
2021/10/15 01:08:12;;;;;;;0.07;0.03;;;;;;;;;;5067504;28;20213;-71
2021/10/15 01:10:39;;;;;;;0.00;0.00;;;;;;;;;;5066009;28;20218;-70
2021/10/15 01:13:07;;;;;;;0.77;0.67;;;;;;;;;;5069763;28;20199;-70
2021/10/15 01:15:36;;;;;;;1.33;0.60;;;;;;;;;;5069779;28;20210;-70
2021/10/15 01:18:03;;;;;;;0.30;0.30;;;;;;;;;;5062921;28;20204;-70
2021/10/15 01:20:32;;;;;;;0.47;0.30;;;;;;;;;;5057925;28;20240;-70
2021/10/15 01:22:59;;;;;;;0.20;0.20;;;;;;;;;;5070257;28;20227;-72
2021/10/15 01:25:28;;;;;;;0.00;0.00;;;;;;;;;;5068715;28;20252;-70
2021/10/15 01:27:56;;;;;;;1.13;1.03;;;;;;;;;;5068875;28;20198;-70
2021/10/15 01:30:23;;;;;;;0.43;0.43;;;;;;;;;;5067601;28;20281;-71
2021/10/15 01:32:51;;;;;;;0.27;0.27;;;;;;;;;;5064756;28;20723;-71
2021/10/15 01:35:18;;;;;;;4.90;0.53;;;;;;;;;;5068858;28;20199;-71
2021/10/15 01:37:47;;;;;;;0.27;0.27;;;;;;;;;;5065949;28;20220;-70
2021/10/15 01:40:14;;;;;;;0.50;0.50;;;;;;;;;;5068045;28;20207;-70
2021/10/15 01:42:54;;;;;;;0.20;0.20;;;;;;;;;;5070151;28;20195;-70
2021/10/15 01:45:22;;;;;;;0.63;0.63;;;;;;;;;;5066849;28;20209;-71
2021/10/15 01:47:49;;;;;;;1.70;1.20;;;;;;;;;;5066046;28;20207;-69
2021/10/15 01:50:17;;;;;;;0.73;0.30;;;;;;;;;;5068981;28;20290;-70
2021/10/15 01:52:44;;;;;;;0.03;0.03;;;;;;;;;;5069077;28;20583;-70
2021/10/15 01:55:13;;;;;;;0.30;0.30;;;;;;;;;;5059425;28;20207;-70
2021/10/15 01:57:41;;;;;;;0.10;0.10;;;;;;;;;;5054598;28;20195;-70
2021/10/15 02:00:09;;;;;;;0.00;0.00;;;;;;;;;;5077876;28;20203;-70
2021/10/15 02:02:37;;;;;;;0.00;0.00;;;;;;;;;;5067432;28;20843;-70
2021/10/15 02:05:05;;;;;;;1.20;0.87;;;;;;;;;;5067677;28;20242;-70
2021/10/15 02:07:32;;;;;;;0.00;0.00;;;;;;;;;;5060086;28;20213;-70
2021/10/15 02:10:00;;;;;;;1.67;1.57;;;;;;;;;;5068863;28;20213;-71
2021/10/15 02:12:28;;;;;;;0.10;0.10;;;;;;;;;;5068967;28;20226;-70
2021/10/15 02:14:56;;;;;;;0.00;0.00;;;;;;;;;;5067112;28;20675;-70
2021/10/15 02:17:23;;;;;;;0.23;0.23;;;;;;;;;;5067628;28;20200;-70
2021/10/15 02:19:51;;;;;;;0.30;0.30;;;;;;;;;;5071204;28;20203;-70
2021/10/15 02:22:18;;;;;;;1.00;0.97;;;;;;;;;;5068267;28;20230;-70
2021/10/15 02:24:46;;;;;;;0.50;0.50;;;;;;;;;;5070673;28;20218;-70
2021/10/15 02:27:13;;;;;;;0.73;0.73;;;;;;;;;;5071232;28;20206;-70
2021/10/15 02:29:42;;;;;;;1.00;0.90;;;;;;;;;;5063196;28;20195;-70
2021/10/15 02:32:10;;;;;;;0.00;0.00;;;;;;;;;;5070393;28;20226;-71
2021/10/15 02:34:37;;;;;;;0.87;0.43;;;;;;;;;;5071522;28;20579;-71
2021/10/15 02:37:05;;;;;;;0.00;0.00;;;;;;;;;;5073357;28;20199;-71
2021/10/15 02:39:32;;;;;;;0.37;0.37;;;;;;;;;;5072072;28;20679;-70
2021/10/15 02:42:00;;;;;;;0.93;0.63;;;;;;;;;;5071150;28;20207;-69
2021/10/15 02:44:29;;;;;;;0.20;0.20;;;;;;;;;;5061745;28;20227;-70
2021/10/15 02:46:57;;;;;;;0.30;0.30;;;;;;;;;;5073454;28;20565;-68
2021/10/15 02:49:25;;;;;;;0.30;0.20;;;;;;;;;;5072631;28;20225;-70
2021/10/15 02:51:52;;;;;;;0.00;0.00;;;;;;;;;;5070371;28;20571;-70
2021/10/15 02:54:20;;;;;;;0.00;0.00;;;;;;;;;;5070430;28;20673;-71
2021/10/15 02:56:47;;;;;;;0.00;0.00;;;;;;;;;;5064698;28;20679;-70
2021/10/15 02:59:15;;;;;;;0.07;0.07;;;;;;;;;;5070939;28;20209;-70
2021/10/15 03:01:42;;;;;;;0.37;0.37;;;;;;;;;;5070355;28;20198;-70
2021/10/15 03:04:11;;;;;;;0.13;0.10;;;;;;;;;;5067721;28;20300;-70
2021/10/15 03:06:38;;;;;;;0.80;0.80;;;;;;;;;;5069862;28;20591;-71
2021/10/15 03:09:06;;;;;;;0.00;0.00;;;;;;;;;;5067268;28;20213;-71
2021/10/15 03:11:33;;;;;;;0.73;0.70;;;;;;;;;;5071405;28;20207;-71
2021/10/15 03:14:01;;;;;;;0.03;0.03;;;;;;;;;;5073197;28;20213;-71
2021/10/15 03:16:28;;;;;;;1.80;1.70;;;;;;;;;;5069656;28;20557;-71
2021/10/15 03:18:55;;;;;;;3.17;1.20;;;;;;;;;;5070537;28;20207;-72
2021/10/15 03:21:24;;;;;;;0.10;0.10;;;;;;;;;;5066956;28;20207;-69
2021/10/15 03:23:52;;;;;;;0.00;0.00;;;;;;;;;;5072374;28;20230;-69
2021/10/15 03:26:20;;;;;;;0.00;0.00;;;;;;;;;;5068853;28;20195;-71
2021/10/15 03:28:47;;;;;;;0.63;0.63;;;;;;;;;;5069067;28;20656;-68
2021/10/15 03:31:15;;;;;;;0.50;0.43;;;;;;;;;;5070565;28;20238;-68
2021/10/15 03:33:42;;;;;;;0.20;0.13;;;;;;;;;;5071582;28;20198;-68
2021/10/15 03:36:10;;;;;;;0.00;0.00;;;;;;;;;;5067667;28;20298;-71
2021/10/15 03:38:38;;;;;;;0.10;0.10;;;;;;;;;;5059628;28;20205;-71
2021/10/15 03:41:06;;;;;;;0.00;0.00;;;;;;;;;;5071944;28;20652;-71
2021/10/15 03:43:33;;;;;;;0.40;0.10;;;;;;;;;;5071675;28;20218;-71
2021/10/15 03:46:01;;;;;;;0.13;0.13;;;;;;;;;;5069456;28;20837;-71
2021/10/15 03:48:28;;;;;;;0.00;0.00;;;;;;;;;;5070004;28;20213;-71
2021/10/15 03:50:56;;;;;;;0.00;0.00;;;;;;;;;;5061268;28;20236;-68
2021/10/15 03:53:23;;;;;;;0.00;0.00;;;;;;;;;;5069876;28;20576;-69
2021/10/15 03:55:52;;;;;;;1.73;1.63;;;;;;;;;;5066747;28;20203;-70
2021/10/15 03:58:19;;;;;;;0.00;0.00;;;;;;;;;;5070188;28;20199;-69
2021/10/15 04:00:47;;;;;;;0.00;0.00;;;;;;;;;;5071935;28;20203;-71
2021/10/15 04:03:14;;;;;;;0.00;0.00;;;;;;;;;;5068875;28;20203;-70
2021/10/15 04:05:42;;;;;;;0.00;0.00;;;;;;;;;;5066790;28;20192;-71
2021/10/15 04:08:09;;;;;;;0.00;0.00;;;;;;;;;;5055574;28;20199;-68
2021/10/15 04:10:37;;;;;;;0.40;0.40;;;;;;;;;;5065667;28;20227;-71
2021/10/15 04:13:06;;;;;;;0.30;0.30;;;;;;;;;;5062178;28;20200;-71
2021/10/15 04:15:34;;;;;;;0.00;0.00;;;;;;;;;;5068424;28;20572;-70
2021/10/15 04:18:01;;;;;;;0.37;0.37;;;;;;;;;;5060553;28;20290;-70
2021/10/15 04:20:28;;;;;;;0.00;0.00;;;;;;;;;;5069192;28;20240;-71
2021/10/15 04:22:56;;;;;;;0.00;0.00;;;;;;;;;;5063183;28;20294;-70
2021/10/15 04:25:23;;;;;;;0.03;0.00;;;;;;;;;;5061712;28;20586;-70
2021/10/15 04:27:51;;;;;;;1.23;0.73;;;;;;;;;;5066691;28;20212;-70
2021/10/15 04:30:20;;;;;;;1.93;1.73;;;;;;;;;;5060670;28;20706;-70
2021/10/15 04:32:47;;;;;;;0.00;0.00;;;;;;;;;;5060154;28;20231;-70
2021/10/15 04:35:14;;;;;;;0.50;0.40;;;;;;;;;;5058193;28;20217;-69
2021/10/15 04:37:42;;;;;;;0.00;0.00;;;;;;;;;;5055626;28;20281;-70
2021/10/15 04:40:10;;;;;;;0.10;0.10;;;;;;;;;;5060519;28;20195;-70
2021/10/15 04:42:39;;;;;;;2.03;1.07;;;;;;;;;;5064548;28;20301;-70
2021/10/15 04:45:07;;;;;;;0.10;0.10;;;;;;;;;;5068986;28;20226;-70
2021/10/15 04:47:36;;;;;;;0.10;0.10;;;;;;;;;;5065711;28;20203;-71
2021/10/15 04:50:04;;;;;;;0.10;0.10;;;;;;;;;;5062105;28;20202;-70
2021/10/15 04:52:32;;;;;;;0.30;0.30;;;;;;;;;;5067952;28;20203;-70
2021/10/15 04:54:59;;;;;;;0.00;0.00;;;;;;;;;;5067094;28;20199;-70
2021/10/15 04:57:27;;;;;;;0.00;0.00;;;;;;;;;;5067500;28;20187;-70
2021/10/15 04:59:54;;;;;;;0.07;0.07;;;;;;;;;;5061949;28;20206;-70
2021/10/15 05:02:22;;;;;;;0.00;0.00;;;;;;;;;;5066123;28;20207;-70
2021/10/15 05:04:50;;;;;;;0.00;0.00;;;;;;;;;;5068952;28;20223;-70
2021/10/15 05:07:18;;;;;;;0.43;0.43;;;;;;;;;;5059085;28;20206;-71
2021/10/15 05:09:45;;;;;;;0.00;0.00;;;;;;;;;;5060119;28;20294;-71
2021/10/15 05:12:15;;;;;;;0.00;0.00;;;;;;;;;;5062301;28;20199;-70
2021/10/15 05:14:43;;;;;;;0.00;0.00;;;;;;;;;;5068360;28;20733;-71
2021/10/15 05:17:11;;;;;;;0.27;0.27;;;;;;;;;;5065774;28;20294;-70
2021/10/15 05:19:38;;;;;;;0.00;0.00;;;;;;;;;;5069725;28;20203;-70
2021/10/15 05:22:07;;;;;;;0.00;0.00;;;;;;;;;;5067977;28;20211;-70
2021/10/15 05:24:34;;;;;;;0.03;0.03;;;;;;;;;;5061305;28;20226;-70
2021/10/15 05:27:02;;;;;;;0.00;0.00;;;;;;;;;;5066847;28;20253;-71
2021/10/15 05:29:29;;;;;;;0.10;0.10;;;;;;;;;;5066662;28;21729;-71
2021/10/15 05:31:56;;;;;;;0.00;0.00;;;;;;;;;;5066070;28;20747;-70
2021/10/15 05:34:24;;;;;;;0.10;0.10;;;;;;;;;;5066296;28;20237;-71
2021/10/15 05:36:51;;;;;;;0.20;0.20;;;;;;;;;;5051957;28;20210;-70
2021/10/15 05:39:20;;;;;;;0.43;0.43;;;;;;;;;;5056359;28;20579;-71
2021/10/15 05:41:48;;;;;;;0.70;0.60;;;;;;;;;;5059659;28;20683;-70
2021/10/15 05:44:15;;;;;;;0.00;0.00;;;;;;;;;;5060943;28;20230;-70
2021/10/15 05:46:42;;;;;;;0.07;0.07;;;;;;;;;;5067686;28;20599;-68
2021/10/15 05:49:10;;;;;;;0.00;0.00;;;;;;;;;;5065185;28;20652;-71
2021/10/15 05:51:41;;;;;;;0.00;0.00;;;;;;;;;;5063967;28;20542;-70
2021/10/15 05:54:11;;;;;;;0.67;0.33;;;;;;;;;;5060001;28;20206;-71
2021/10/15 05:56:57;;;;;;;0.00;0.00;;;;;;;;;;5059434;28;20230;-71
2021/10/15 05:59:23;;;;;;;0.40;0.40;;;;;;;;;;5067970;28;20196;-69
2021/10/15 06:01:54;;;;;;;0.10;0.10;;;;;;;;;;5069994;28;20667;-70
2021/10/15 06:15:32;;;;;;;0.00;0.00;;;;;;;;;;5069343;28;20217;-70
2021/10/15 06:18:09;;;;;;;0.30;0.20;;;;;;;;;;5063699;28;20628;-68
2021/10/15 06:20:37;;;;;;;0.00;0.00;;;;;;;;;;5071478;28;20198;-68
2021/10/15 06:23:04;;;;;;;0.00;0.00;;;;;;;;;;5073056;28;20203;-71
2021/10/15 06:25:32;;;;;;;0.00;0.00;;;;;;;;;;5071179;28;20241;-68
2021/10/15 06:28:01;;;;;;;0.00;0.00;;;;;;;;;;5070279;28;20203;-71
2021/10/15 06:30:28;;;;;;;0.00;0.00;;;;;;;;;;5070956;28;20668;-70
2021/10/15 06:32:56;;;;;;;0.00;0.00;;;;;;;;;;5054540;28;20242;-68
2021/10/15 06:35:23;;;;;;;0.00;0.00;;;;;;;;;;5071974;28;20660;-71
2021/10/15 06:37:51;;;;;;;0.00;0.00;;;;;;;;;;5071259;28;20195;-68
2021/10/15 06:40:19;;;;;;;0.03;0.03;;;;;;;;;;5071040;28;20200;-71
2021/10/15 06:42:47;;;;;;;0.00;0.00;;;;;;;;;;5072414;28;20203;-71
2021/10/15 06:45:16;;;;;;;0.00;0.00;;;;;;;;;;5070419;28;20304;-71
2021/10/15 06:47:44;;;;;;;0.00;0.00;;;;;;;;;;5068931;28;20214;-71
2021/10/15 06:50:11;;;;;;;0.93;0.63;;;;;;;;;;5071891;28;20201;-71
2021/10/15 06:52:46;;;;;;;0.60;0.60;;;;;;;;;;5072960;28;20214;-71
2021/10/15 06:55:14;;;;;;;0.30;0.13;;;;;;;;;;5067973;28;20255;-70
2021/10/15 06:57:42;;;;;;;0.00;0.00;;;;;;;;;;5070260;28;20261;-71
2021/10/15 07:00:10;;;;;;;0.00;0.00;;;;;;;;;;5075738;28;20203;-71
2021/10/15 07:02:39;;;;;;;0.00;0.00;;;;;;;;;;5071397;28;20199;-70
2021/10/15 07:05:07;;;;;;;0.00;0.00;;;;;;;;;;5067802;28;20224;-70
2021/10/15 07:07:34;;;;;;;0.00;0.00;;;;;;;;;;5071130;28;20199;-71
2021/10/15 07:10:02;;;;;;;0.00;0.00;;;;;;;;;;5062107;28;20210;-70
2021/10/15 07:12:32;;;;;;;0.00;0.00;;;;;;;;;;5061704;28;20207;-69
2021/10/15 07:15:00;;;;;;;0.00;0.00;;;;;;;;;;5061378;28;20200;-70
2021/10/15 07:17:27;;;;;;;0.00;0.00;;;;;;;;;;5058550;28;20252;-72
2021/10/15 07:19:56;;;;;;;0.00;0.00;;;;;;;;;;5064333;28;20206;-70
2021/10/15 07:22:24;;;;;;;0.00;0.00;;;;;;;;;;5071270;28;20553;-69
2021/10/15 07:24:51;;;;;;;0.00;0.00;;;;;;;;;;5067489;28;20233;-70
2021/10/15 07:27:19;;;;;;;0.30;0.30;;;;;;;;;;5068858;28;20218;-69
2021/10/15 07:29:46;;;;;;;0.00;0.00;;;;;;;;;;5063910;28;20561;-69
2021/10/15 07:32:13;;;;;;;0.00;0.00;;;;;;;;;;5059471;28;20235;-71
2021/10/15 07:34:41;;;;;;;0.00;0.00;;;;;;;;;;5065355;28;20287;-71
2021/10/15 07:37:10;;;;;;;0.00;0.00;;;;;;;;;;5060770;28;20204;-72
2021/10/15 07:39:37;;;;;;;0.00;0.00;;;;;;;;;;5063872;28;20688;-69
2021/10/15 07:42:05;;;;;;;0.00;0.00;;;;;;;;;;5060312;28;20202;-73
2021/10/15 07:44:33;;;;;;;0.00;0.00;;;;;;;;;;5069320;28;20211;-73
2021/10/15 07:47:00;;;;;;;0.00;0.00;;;;;;;;;;5062033;28;20206;-72
2021/10/15 07:49:28;;;;;;;0.00;0.00;;;;;;;;;;5064761;28;20211;-72
2021/10/15 07:51:55;;;;;;;0.00;0.00;;;;;;;;;;5061242;28;20196;-72
2021/10/15 07:54:24;;;;;;;0.00;0.00;;;;;;;;;;5060064;28;20600;-79
2021/10/15 07:56:52;;;;;;;0.00;0.00;;;;;;;;;;5051145;28;20229;-72
2021/10/15 07:59:19;;;;;;;0.00;0.00;;;;;;;;;;5051319;28;20215;-73
2021/10/15 08:01:47;;;;;;;0.00;0.00;;;;;;;;;;5055905;28;20210;-73
2021/10/15 08:04:14;;;;;;;0.20;0.20;;;;;;;;;;5049730;28;20207;-72
2021/10/15 08:06:42;;;;;;;0.00;0.00;;;;;;;;;;5051037;28;20249;-72
2021/10/15 08:09:09;;;;;;;0.00;0.00;;;;;;;;;;5051233;28;20205;-72
2021/10/15 08:11:38;;;;;;;0.00;0.00;;;;;;;;;;5054513;28;20210;-72
2021/10/15 08:14:07;;;;;;;0.00;0.00;;;;;;;;;;5051961;28;20207;-74
2021/10/15 08:16:34;;;;;;;0.10;0.10;;;;;;;;;;5048587;28;20204;-73
2021/10/15 08:19:01;;;;;;;0.43;0.43;;;;;;;;;;5048943;28;20245;-71
2021/10/15 08:21:29;;;;;;;0.00;0.00;;;;;;;;;;5052338;28;20211;-73
2021/10/15 08:23:56;;;;;;;0.00;0.00;;;;;;;;;;5051069;28;20214;-73
2021/10/15 08:26:25;;;;;;;0.00;0.00;;;;;;;;;;5065682;28;20222;-71
2021/10/15 08:28:58;;;;;;;0.00;0.00;;;;;;;;;;5070765;28;20679;-74
2021/10/15 08:31:26;;;;;;;0.00;0.00;;;;;;;;;;5067584;28;20201;-73
2021/10/15 08:33:53;;;;;;;0.00;0.00;;;;;;;;;;5065516;28;20210;-71
2021/10/15 08:36:22;;;;;;;0.30;0.30;;;;;;;;;;5050014;28;20325;-71
2021/10/15 08:38:50;;;;;;;0.00;0.00;;;;;;;;;;5051638;28;20203;-71
2021/10/15 08:41:20;;;;;;;0.00;0.00;;;;;;;;;;5050032;28;20212;-70
2021/10/15 08:43:48;;;;;;;0.20;0.20;;;;;;;;;;5049702;28;20226;-70
2021/10/15 08:46:17;;;;;;;0.00;0.00;;;;;;;;;;5049298;28;20238;-71
2021/10/15 08:48:44;;;;;;;0.00;0.00;;;;;;;;;;5059890;28;20209;-72
2021/10/15 08:51:12;;;;;;;0.00;0.00;;;;;;;;;;5068039;28;20202;-72
2021/10/15 08:53:46;;;;;;;0.00;0.00;;;;;;;;;;5069875;28;20675;-73
2021/10/15 08:56:15;;;;;;;0.00;0.00;;;;;;;;;;5058558;28;20599;-71
2021/10/15 08:58:44;;;;;;;0.00;0.00;;;;;;;;;;5051299;28;20218;-72
2021/10/15 09:01:11;;;;;;;0.00;0.00;;;;;;;;;;5057888;28;20200;-72
2021/10/15 09:03:40;;;;;;;0.00;0.00;;;;;;;;;;5054010;28;20197;-72
2021/10/15 09:06:08;;;;;;;0.00;0.00;;;;;;;;;;5052796;28;20246;-73
2021/10/15 09:08:46;;;;;;;0.00;0.00;;;;;;;;;;5048069;28;20752;-73
2021/10/15 09:11:30;;;;;;;0.00;0.00;;;;;;;;;;5051725;28;20213;-73
2021/10/15 09:14:11;;;;;;;0.00;0.00;;;;;;;;;;5068554;28;20207;-70
2021/10/15 09:16:57;;;;;;;0.00;0.00;;;;;;;;;;5051048;28;20217;-73
2021/10/15 09:19:30;;;;;;;0.00;0.00;;;;;;;;;;5062260;28;20321;-73
2021/10/15 09:22:08;;;;;;;0.00;0.00;;;;;;;;;;5061777;28;20210;-73
2021/10/15 09:24:37;;;;;;;0.00;0.00;;;;;;;;;;5067731;28;20245;-73
2021/10/15 09:27:15;;;;;;;0.00;0.00;;;;;;;;;;5068762;28;20224;-73
2021/10/15 09:29:43;;;;;;;0.00;0.00;;;;;;;;;;5067369;28;20203;-73
2021/10/15 09:32:11;;;;;;;0.00;0.00;;;;;;;;;;5069756;28;20253;-72
2021/10/15 09:34:40;;;;;;;0.00;0.00;;;;;;;;;;5068050;28;20203;-73
2021/10/15 09:37:12;;;;;;;0.00;0.00;;;;;;;;;;5067468;28;20229;-72
2021/10/15 09:39:40;;;;;;;0.00;0.00;;;;;;;;;;5068889;28;20608;-73
2021/10/15 09:42:17;;;;;;;0.10;0.10;;;;;;;;;;5070568;28;20209;-72
2021/10/15 09:44:45;;;;;;;0.00;0.00;;;;;;;;;;5070334;28;20199;-72
2021/10/15 09:47:17;;;;;;;0.00;0.00;;;;;;;;;;5067988;28;20230;-72
2021/10/15 09:49:49;;;;;;;0.00;0.00;;;;;;;;;;5061756;28;20207;-73
2021/10/15 09:52:27;;;;;;;0.00;0.00;;;;;;;;;;5067479;28;20199;-72
2021/10/15 09:54:56;;;;;;;0.00;0.00;;;;;;;;;;5052800;28;20195;-72
2021/10/15 09:57:33;;;;;;;0.00;0.00;;;;;;;;;;5068564;28;20290;-72
2021/10/15 10:00:01;;;;;;;0.00;0.00;;;;;;;;;;5065880;28;20575;-72
2021/10/15 10:02:29;;;;;;;0.00;0.00;;;;;;;;;;5068505;28;20213;-72
2021/10/15 10:04:58;;;;;;;0.00;0.00;;;;;;;;;;5068019;28;20200;-72
2021/10/15 10:07:25;;;;;;;0.00;0.00;;;;;;;;;;5070418;28;20227;-72
2021/10/15 10:09:53;;;;;;;0.00;0.00;;;;;;;;;;5068470;28;20286;-72
2021/10/15 10:12:21;;;;;;;0.00;0.00;;;;;;;;;;5067224;28;20631;-72
2021/10/15 10:14:50;;;;;;;0.00;0.00;;;;;;;;;;5054262;28;20214;-73
2021/10/15 10:17:22;;;;;;;0.00;0.00;;;;;;;;;;5068977;28;20599;-72
2021/10/15 10:19:51;;;;;;;0.00;0.00;;;;;;;;;;5067492;28;20668;-72
2021/10/15 10:22:20;;;;;;;0.00;0.00;;;;;;;;;;5068605;28;20206;-72
2021/10/15 10:24:51;;;;;;;0.00;0.00;;;;;;;;;;5067546;28;20238;-73
2021/10/15 10:27:29;;;;;;;0.00;0.00;;;;;;;;;;5055959;28;20674;-72
2021/10/15 10:29:56;;;;;;;0.00;0.00;;;;;;;;;;5069536;28;20221;-73
2021/10/15 10:32:25;;;;;;;0.00;0.00;;;;;;;;;;5067011;28;20277;-72
2021/10/15 10:34:53;;;;;;;0.00;0.00;;;;;;;;;;5068083;28;20206;-72
2021/10/15 10:37:23;;;;;;;0.00;0.00;;;;;;;;;;5067443;28;20203;-72
2021/10/15 10:40:06;;;;;;;0.00;0.00;;;;;;;;;;5070634;28;20206;-71
2021/10/15 10:42:33;;;;;;;0.00;0.00;;;;;;;;;;5071239;28;20664;-72
2021/10/15 10:45:10;;;;;;;0.10;0.10;;;;;;;;;;5071632;28;20213;-73
2021/10/15 10:47:38;;;;;;;0.00;0.00;;;;;;;;;;5071974;28;20230;-73
2021/10/15 10:50:11;;;;;;;0.00;0.00;;;;;;;;;;5072201;28;20218;-72
2021/10/15 10:52:42;;;;;;;0.00;0.00;;;;;;;;;;5072498;28;20291;-73
2021/10/15 10:55:30;;;;;;;0.10;0.10;;;;;;;;;;5071482;28;20253;-72
2021/10/15 10:57:57;;;;;;;0.10;0.00;;;;;;;;;;5069791;28;20672;-72
2021/10/15 11:00:25;;;;;;;0.00;0.00;;;;;;;;;;5071484;28;20213;-71
2021/10/15 11:02:54;;;;;;;0.13;0.13;;;;;;;;;;5073381;28;20272;-72
2021/10/15 11:05:39;;;;;;;0.00;0.00;;;;;;;;;;5070978;28;20240;-72
2021/10/15 11:08:25;;;;;;;0.10;0.10;;;;;;;;;;5071421;28;20219;-71
2021/10/15 11:10:55;;;;;;;0.00;0.00;;;;;;;;;;5070169;28;20336;-71
2021/10/15 11:13:32;;;;;;;0.00;0.00;;;;;;;;;;5068971;28;20199;-71
2021/10/15 11:15:59;;;;;;;0.00;0.00;;;;;;;;;;5071892;28;20199;-72
2021/10/15 11:18:27;;;;;;;0.00;0.00;;;;;;;;;;5071654;28;20199;-71
2021/10/15 11:20:55;;;;;;;0.00;0.00;;;;;;;;;;5071624;28;20199;-71
2021/10/15 11:23:23;;;;;;;0.00;0.00;;;;;;;;;;5070141;28;20248;-70
2021/10/15 11:25:50;;;;;;;0.00;0.00;;;;;;;;;;5070908;28;20205;-70
2021/10/15 11:28:20;;;;;;;0.00;0.00;;;;;;;;;;5071938;28;20642;-71
2021/10/15 11:30:49;;;;;;;0.00;0.00;;;;;;;;;;5069763;28;20207;-70
2021/10/15 11:33:18;;;;;;;0.00;0.00;;;;;;;;;;5069758;28;20237;-70
2021/10/15 11:35:46;;;;;;;0.00;0.00;;;;;;;;;;5071271;28;20199;-70
2021/10/15 11:38:18;;;;;;;0.00;0.00;;;;;;;;;;5072861;28;20203;-70
2021/10/15 11:40:47;;;;;;;0.00;0.00;;;;;;;;;;5069411;28;20253;-70
2021/10/15 11:43:16;;;;;;;0.00;0.00;;;;;;;;;;5070686;28;20206;-70
2021/10/15 11:45:46;;;;;;;0.00;0.00;;;;;;;;;;5069466;28;20226;-71
2021/10/15 11:48:14;;;;;;;0.00;0.00;;;;;;;;;;5072857;28;20702;-70
2021/10/15 11:50:44;;;;;;;0.00;0.00;;;;;;;;;;5070358;28;20195;-71
2021/10/15 11:53:12;;;;;;;0.00;0.00;;;;;;;;;;5069160;28;20202;-71
2021/10/15 11:55:40;;;;;;;0.00;0.00;;;;;;;;;;5069095;28;20286;-72
2021/10/15 11:58:22;;;;;;;0.00;0.00;;;;;;;;;;5070620;28;20211;-72
2021/10/15 12:01:01;;;;;;;0.00;0.00;;;;;;;;;;5071582;28;20294;-72
2021/10/15 12:03:30;;;;;;;0.00;0.00;;;;;;;;;;5068692;28;20209;-72
2021/10/15 12:05:58;;;;;;;0.00;0.00;;;;;;;;;;5069044;28;20568;-72
2021/10/15 12:08:25;;;;;;;0.00;0.00;;;;;;;;;;5070184;28;20201;-72
2021/10/15 12:10:53;;;;;;;0.00;0.00;;;;;;;;;;5071955;28;20195;-72
2021/10/15 12:13:21;;;;;;;0.00;0.00;;;;;;;;;;5070937;28;20203;-72
2021/10/15 12:15:48;;;;;;;0.00;0.00;;;;;;;;;;5068978;28;20750;-72
2021/10/15 12:18:18;;;;;;;0.00;0.00;;;;;;;;;;5070334;28;20575;-72
2021/10/15 12:20:46;;;;;;;0.00;0.00;;;;;;;;;;5069711;28;20210;-72
2021/10/15 12:23:13;;;;;;;0.00;0.00;;;;;;;;;;5071697;28;20222;-72
2021/10/15 12:25:41;;;;;;;0.00;0.00;;;;;;;;;;5069024;28;20679;-72
2021/10/15 12:28:12;;;;;;;0.00;0.00;;;;;;;;;;5068975;28;20396;-72
2021/10/15 12:30:40;;;;;;;0.00;0.00;;;;;;;;;;5070155;28;20226;-72
2021/10/15 12:33:08;;;;;;;0.00;0.00;;;;;;;;;;5070589;28;20635;-72
2021/10/15 12:35:38;;;;;;;0.00;0.00;;;;;;;;;;5070195;28;20214;-71
2021/10/15 12:38:05;;;;;;;0.00;0.00;;;;;;;;;;5068492;28;20210;-72
2021/10/15 12:40:40;;;;;;;0.00;0.00;;;;;;;;;;5068655;28;20199;-71
2021/10/15 12:43:15;;;;;;;0.00;0.00;;;;;;;;;;5070148;28;20647;-72
2021/10/15 12:45:43;;;;;;;0.00;0.00;;;;;;;;;;5069507;28;20203;-72
2021/10/15 12:48:11;;;;;;;0.00;0.00;;;;;;;;;;5069531;28;20313;-71
2021/10/15 12:50:42;;;;;;;0.00;0.00;;;;;;;;;;5069068;28;20260;-72
2021/10/15 12:53:14;;;;;;;0.00;0.00;;;;;;;;;;5068992;28;20205;-72
2021/10/15 12:55:49;;;;;;;0.00;0.00;;;;;;;;;;5070927;28;20728;-71
2021/10/15 12:58:16;;;;;;;0.20;0.20;;;;;;;;;;5069237;28;20595;-72
2021/10/15 13:00:48;;;;;;;0.00;0.00;;;;;;;;;;5067751;28;20205;-72
2021/10/15 13:03:15;;;;;;;0.00;0.00;;;;;;;;;;5068976;28;20199;-71
2021/10/15 13:05:44;;;;;;;0.00;0.00;;;;;;;;;;5053537;28;20568;-71
2021/10/15 13:08:13;;;;;;;0.00;0.00;;;;;;;;;;5068704;28;20233;-71
2021/10/15 13:10:40;;;;;;;0.00;0.00;;;;;;;;;;5067833;28;20575;-71
2021/10/15 13:13:08;;;;;;;0.00;0.00;;;;;;;;;;5069995;28;20211;-71
2021/10/15 13:15:35;;;;;;;0.00;0.00;;;;;;;;;;5071093;28;20642;-71
2021/10/15 13:18:03;;;;;;;0.00;0.00;;;;;;;;;;5069920;28;20210;-71
2021/10/15 13:20:31;;;;;;;0.00;0.00;;;;;;;;;;5067894;28;20202;-71
2021/10/15 13:23:00;;;;;;;0.00;0.00;;;;;;;;;;5070334;28;20199;-71
2021/10/15 13:25:28;;;;;;;0.00;0.00;;;;;;;;;;5068324;28;20206;-70
2021/10/15 13:27:56;;;;;;;0.00;0.00;;;;;;;;;;5069597;28;20289;-71
2021/10/15 13:30:23;;;;;;;0.00;0.00;;;;;;;;;;5068999;28;20260;-71
2021/10/15 13:32:51;;;;;;;0.00;0.00;;;;;;;;;;5068473;28;20696;-70
2021/10/15 13:35:19;;;;;;;0.00;0.00;;;;;;;;;;5069320;28;20203;-70
2021/10/15 13:37:52;;;;;;;0.00;0.00;;;;;;;;;;5069298;28;20226;-70
2021/10/15 13:40:24;;;;;;;0.00;0.00;;;;;;;;;;5068800;28;20207;-71
2021/10/15 13:45:43;;;;;;;0.00;0.00;;;;;;;;;;5066131;28;20191;-70
2021/10/15 13:50:56;;;;;;;0.00;0.00;;;;;;;;;;5070172;28;20210;-70
2021/10/15 13:53:25;;;;;;;0.00;0.00;;;;;;;;;;5068148;28;20202;-70
2021/10/15 13:55:57;;;;;;;0.00;0.00;;;;;;;;;;5069152;28;20304;-70
2021/10/15 13:58:28;;;;;;;0.00;0.00;;;;;;;;;;5067366;28;20199;-70
2021/10/15 14:01:00;;;;;;;0.00;0.00;;;;;;;;;;5069645;28;20205;-70
2021/10/15 14:04:13;;;;;;;0.00;0.00;;;;;;;;;;5070505;28;20608;-70
2021/10/15 14:06:41;;;;;;;0.00;0.00;;;;;;;;;;5069429;28;20291;-70
2021/10/15 14:09:08;;;;;;;0.00;0.00;;;;;;;;;;5067294;28;20207;-70
2021/10/15 14:11:38;;;;;;;0.00;0.00;;;;;;;;;;5067513;28;20238;-70
2021/10/15 14:14:05;;;;;;;0.13;0.13;;;;;;;;;;5067915;28;20208;-70
2021/10/15 14:16:32;;;;;;;0.10;0.10;;;;;;;;;;5073705;28;20226;-70
2021/10/15 14:19:00;;;;;;;0.00;0.00;;;;;;;;;;5071568;28;20207;-69
2021/10/15 14:21:27;;;;;;;0.00;0.00;;;;;;;;;;5071920;28;20229;-70
2021/10/15 14:23:55;;;;;;;0.00;0.00;;;;;;;;;;5071262;28;20221;-70
2021/10/15 14:26:22;;;;;;;0.00;0.00;;;;;;;;;;5073888;28;20209;-69
2021/10/15 14:28:52;;;;;;;0.00;0.00;;;;;;;;;;5071187;28;20235;-69
2021/10/15 14:31:19;;;;;;;0.00;0.00;;;;;;;;;;5071937;28;20207;-69
2021/10/15 14:33:47;;;;;;;0.00;0.00;;;;;;;;;;5071928;28;20277;-69
2021/10/15 14:36:14;;;;;;;0.00;0.00;;;;;;;;;;5073828;28;20648;-69
2021/10/15 14:38:42;;;;;;;0.00;0.00;;;;;;;;;;5072338;28;20215;-69
2021/10/15 14:41:09;;;;;;;0.00;0.00;;;;;;;;;;5071053;28;20286;-69
2021/10/15 14:43:36;;;;;;;0.00;0.00;;;;;;;;;;5071053;28;20295;-69
2021/10/15 14:46:07;;;;;;;0.00;0.00;;;;;;;;;;5073232;28;20209;-69
2021/10/15 14:48:34;;;;;;;0.00;0.00;;;;;;;;;;5072165;28;20318;-69
2021/10/15 14:51:01;;;;;;;0.00;0.00;;;;;;;;;;5071823;28;20207;-69
2021/10/15 14:53:29;;;;;;;0.00;0.00;;;;;;;;;;5071874;28;20582;-69
2021/10/15 14:55:56;;;;;;;0.00;0.00;;;;;;;;;;5072247;28;20201;-69
2021/10/15 14:58:24;;;;;;;0.00;0.00;;;;;;;;;;5075062;28;20201;-69
2021/10/15 15:00:55;;;;;;;0.00;0.00;;;;;;;;;;5071427;28;20248;-69
2021/10/15 15:03:24;;;;;;;0.00;0.00;;;;;;;;;;5070260;28;20209;-69
2021/10/15 15:05:52;;;;;;;0.00;0.00;;;;;;;;;;5070867;28;20205;-69
2021/10/15 15:08:19;;;;;;;0.00;0.00;;;;;;;;;;5072218;28;20241;-70
2021/10/15 15:10:47;;;;;;;0.10;0.10;;;;;;;;;;5071527;28;20317;-70